Time;durP1;ratioP1;P1;durP2;ratioP2;P2;SDS_P1;SDS_P2;PMS_P1;PMS_P2;Temp;Humidity;BMP_temperature;BMP_pressure;BME280_temperature;BME280_humidity;BME280_pressure;Samples;Min_cycle;Max_cycle;Signal;HPM_P1;HPM_P2
2021/07/24 00:02:05;;;;;;;14.00;4.40;;;;;;;;;;5012486;28;20213;-75
2021/07/24 00:04:34;;;;;;;10.27;4.57;;;;;;;;;;5012436;28;20307;-76
2021/07/24 00:07:01;;;;;;;15.37;4.50;;;;;;;;;;5012393;28;20284;-76
2021/07/24 00:09:30;;;;;;;10.47;3.30;;;;;;;;;;5012246;28;20652;-75
2021/07/24 00:11:57;;;;;;;11.07;3.87;;;;;;;;;;5012497;28;20204;-75
2021/07/24 00:14:24;;;;;;;11.83;3.70;;;;;;;;;;5012499;28;20292;-76
2021/07/24 00:16:51;;;;;;;9.97;3.87;;;;;;;;;;5012394;28;20263;-75
2021/07/24 00:19:18;;;;;;;10.77;3.10;;;;;;;;;;5012606;28;20284;-76
2021/07/24 00:21:47;;;;;;;11.13;3.60;;;;;;;;;;5012307;28;20320;-75
2021/07/24 00:24:14;;;;;;;9.80;3.03;;;;;;;;;;5012248;28;20223;-76
2021/07/24 00:26:42;;;;;;;11.03;3.23;;;;;;;;;;5012805;28;20292;-75
2021/07/24 00:29:10;;;;;;;10.37;3.20;;;;;;;;;;5012230;28;20316;-76
2021/07/24 00:31:37;;;;;;;12.73;3.60;;;;;;;;;;5012165;28;20236;-76
2021/07/24 00:34:04;;;;;;;11.53;3.30;;;;;;;;;;5012523;28;20295;-76
2021/07/24 00:36:31;;;;;;;11.67;3.50;;;;;;;;;;5012336;28;20288;-75
2021/07/24 00:39:00;;;;;;;10.43;3.03;;;;;;;;;;5011612;28;20316;-75
2021/07/24 00:41:31;;;;;;;8.67;3.20;;;;;;;;;;5012275;28;20232;-75
2021/07/24 00:43:58;;;;;;;11.20;3.00;;;;;;;;;;5014311;28;20197;-76
2021/07/24 00:46:26;;;;;;;11.40;3.47;;;;;;;;;;5016392;28;20197;-75
2021/07/24 00:48:53;;;;;;;12.40;3.47;;;;;;;;;;5015896;28;20688;-76
2021/07/24 00:51:26;;;;;;;14.10;3.70;;;;;;;;;;5015906;28;20676;-75
2021/07/24 00:53:54;;;;;;;12.13;3.47;;;;;;;;;;5015605;28;20661;-75
2021/07/24 00:56:24;;;;;;;10.80;3.03;;;;;;;;;;5015873;28;20334;-75
2021/07/24 00:58:51;;;;;;;14.20;3.57;;;;;;;;;;5015956;28;20209;-76
2021/07/24 01:01:18;;;;;;;10.77;3.17;;;;;;;;;;5015635;28;20775;-75
2021/07/24 01:03:46;;;;;;;13.50;3.50;;;;;;;;;;5015388;28;20660;-75
2021/07/24 01:06:14;;;;;;;10.50;3.60;;;;;;;;;;5015949;28;20744;-75
2021/07/24 01:08:42;;;;;;;12.50;3.37;;;;;;;;;;5015894;28;20316;-76
2021/07/24 01:11:10;;;;;;;12.77;3.43;;;;;;;;;;5015769;28;20292;-75
2021/07/24 01:13:39;;;;;;;10.80;3.43;;;;;;;;;;5015650;28;20287;-75
2021/07/24 01:16:07;;;;;;;11.20;3.30;;;;;;;;;;5015662;28;20240;-75
2021/07/24 01:18:35;;;;;;;11.83;3.30;;;;;;;;;;5015357;28;20292;-75
2021/07/24 01:21:04;;;;;;;15.17;3.97;;;;;;;;;;5014388;28;20320;-76
2021/07/24 01:23:32;;;;;;;10.47;3.30;;;;;;;;;;5015251;28;20233;-75
2021/07/24 01:26:00;;;;;;;9.57;3.30;;;;;;;;;;5015119;28;20212;-75
2021/07/24 01:28:29;;;;;;;15.30;3.83;;;;;;;;;;5014943;28;20200;-76
2021/07/24 01:30:56;;;;;;;10.27;3.10;;;;;;;;;;5015091;28;20194;-75
2021/07/24 01:33:24;;;;;;;11.10;3.43;;;;;;;;;;5015424;28;20291;-75
2021/07/24 01:35:51;;;;;;;13.20;3.90;;;;;;;;;;5014849;28;20690;-76
2021/07/24 01:38:19;;;;;;;10.90;3.70;;;;;;;;;;5014910;28;20657;-75
2021/07/24 01:40:48;;;;;;;10.20;3.90;;;;;;;;;;5015205;28;20327;-75
2021/07/24 01:43:15;;;;;;;14.07;3.93;;;;;;;;;;5014734;28;20247;-75
2021/07/24 01:45:43;;;;;;;12.30;3.77;;;;;;;;;;5014882;28;20292;-75
2021/07/24 01:48:14;;;;;;;12.17;3.97;;;;;;;;;;5014791;28;20213;-75
2021/07/24 01:53:28;;;;;;;11.17;4.07;;;;;;;;;;5014809;28;20267;-75
2021/07/24 01:55:58;;;;;;;14.57;4.40;;;;;;;;;;5014443;28;20201;-76
2021/07/24 01:58:29;;;;;;;12.57;4.30;;;;;;;;;;5014723;28;20204;-75
2021/07/24 02:00:58;;;;;;;10.07;4.20;;;;;;;;;;5014503;28;20312;-75
2021/07/24 02:03:26;;;;;;;11.40;4.63;;;;;;;;;;5014642;28;20251;-75
2021/07/24 02:05:54;;;;;;;10.83;4.00;;;;;;;;;;5014407;28;20205;-75
2021/07/24 02:08:23;;;;;;;12.00;4.50;;;;;;;;;;5014537;28;20225;-76
2021/07/24 02:10:51;;;;;;;14.20;4.20;;;;;;;;;;5014285;28;20279;-75
2021/07/24 02:13:20;;;;;;;9.07;3.77;;;;;;;;;;5014210;28;20288;-75
2021/07/24 02:15:47;;;;;;;16.33;4.43;;;;;;;;;;5014186;28;20300;-75
2021/07/24 02:18:17;;;;;;;15.40;4.47;;;;;;;;;;5014117;28;20292;-75
2021/07/24 02:20:46;;;;;;;11.50;4.43;;;;;;;;;;5014284;28;20225;-75
2021/07/24 02:23:13;;;;;;;11.23;4.63;;;;;;;;;;5014312;28;20312;-75
2021/07/24 02:25:41;;;;;;;12.20;4.40;;;;;;;;;;5014173;28;20205;-75
2021/07/24 02:28:08;;;;;;;13.07;4.47;;;;;;;;;;5014064;28;20292;-75
2021/07/24 02:30:36;;;;;;;10.37;4.37;;;;;;;;;;5014003;28;20312;-76
2021/07/24 02:33:04;;;;;;;12.20;3.90;;;;;;;;;;5008947;28;20296;-75
2021/07/24 02:35:31;;;;;;;15.60;4.30;;;;;;;;;;4998023;28;20321;-75
2021/07/24 02:37:58;;;;;;;12.17;4.30;;;;;;;;;;4994626;28;20206;-76
2021/07/24 02:40:25;;;;;;;9.57;4.20;;;;;;;;;;4994054;28;20288;-76
2021/07/24 02:42:54;;;;;;;13.80;4.00;;;;;;;;;;4994568;28;20230;-75
2021/07/24 02:45:22;;;;;;;12.83;4.33;;;;;;;;;;4994123;28;20264;-75
2021/07/24 02:47:51;;;;;;;12.10;4.00;;;;;;;;;;4994020;28;20304;-75
2021/07/24 02:50:18;;;;;;;11.70;4.07;;;;;;;;;;4994083;28;20292;-75
2021/07/24 02:52:45;;;;;;;10.53;4.07;;;;;;;;;;4994057;28;20304;-75
2021/07/24 02:55:12;;;;;;;15.07;4.43;;;;;;;;;;4994115;28;20312;-75
2021/07/24 02:57:40;;;;;;;15.63;4.50;;;;;;;;;;4994093;28;20606;-75
2021/07/24 03:00:07;;;;;;;13.10;4.20;;;;;;;;;;4994047;28;20312;-75
2021/07/24 03:02:35;;;;;;;12.77;4.20;;;;;;;;;;4993339;28;20225;-75
2021/07/24 03:05:04;;;;;;;8.57;4.00;;;;;;;;;;4993671;28;20212;-75
2021/07/24 03:07:31;;;;;;;13.40;4.13;;;;;;;;;;4992964;28;20233;-76
2021/07/24 03:09:58;;;;;;;13.07;4.00;;;;;;;;;;4992873;28;20324;-75
2021/07/24 03:12:25;;;;;;;10.70;3.57;;;;;;;;;;4993646;28;20225;-75
2021/07/24 03:14:53;;;;;;;11.47;3.80;;;;;;;;;;4993876;28;20284;-74
2021/07/24 03:17:20;;;;;;;11.93;3.90;;;;;;;;;;4993136;28;20202;-75
2021/07/24 03:19:48;;;;;;;11.60;4.00;;;;;;;;;;4993799;28;20205;-75
2021/07/24 03:22:16;;;;;;;9.47;4.10;;;;;;;;;;4993539;28;20221;-75
2021/07/24 03:24:44;;;;;;;9.57;4.07;;;;;;;;;;4993739;28;20625;-75
2021/07/24 03:27:11;;;;;;;9.47;4.30;;;;;;;;;;4993249;28;20201;-75
2021/07/24 03:29:38;;;;;;;13.87;4.20;;;;;;;;;;4993125;28;20324;-75
2021/07/24 03:32:06;;;;;;;11.50;3.80;;;;;;;;;;4992803;28;20731;-75
2021/07/24 03:34:33;;;;;;;9.87;3.80;;;;;;;;;;4992963;28;20292;-75
2021/07/24 03:37:00;;;;;;;13.37;4.07;;;;;;;;;;4993039;28;20257;-75
2021/07/24 03:39:29;;;;;;;11.03;4.60;;;;;;;;;;4993162;28;20297;-75
2021/07/24 03:41:56;;;;;;;10.27;3.80;;;;;;;;;;4993332;28;20640;-75
2021/07/24 03:44:23;;;;;;;13.00;4.33;;;;;;;;;;4992960;28;20718;-75
2021/07/24 03:46:50;;;;;;;11.30;4.13;;;;;;;;;;4992787;28;20674;-76
2021/07/24 03:49:18;;;;;;;11.23;3.93;;;;;;;;;;4992868;28;20247;-75
2021/07/24 03:51:45;;;;;;;9.73;4.13;;;;;;;;;;4992938;28;20229;-75
2021/07/24 03:54:12;;;;;;;9.90;3.80;;;;;;;;;;4992851;28;20289;-75
2021/07/24 03:56:41;;;;;;;12.70;4.23;;;;;;;;;;4991938;28;20260;-76
2021/07/24 03:59:08;;;;;;;10.00;4.23;;;;;;;;;;4993135;28;20233;-76
2021/07/24 04:01:35;;;;;;;10.03;4.57;;;;;;;;;;4992385;28;20312;-75
2021/07/24 04:04:02;;;;;;;13.30;4.37;;;;;;;;;;4993032;28;20613;-75
2021/07/24 04:06:30;;;;;;;15.50;4.43;;;;;;;;;;4992789;28;20289;-75
2021/07/24 04:08:58;;;;;;;7.90;4.03;;;;;;;;;;4992309;28;20248;-75
2021/07/24 04:11:26;;;;;;;14.43;4.70;;;;;;;;;;4992983;28;20234;-76
2021/07/24 04:13:55;;;;;;;14.87;4.63;;;;;;;;;;4992685;28;20305;-76
2021/07/24 04:16:22;;;;;;;11.43;3.90;;;;;;;;;;4992640;28;20292;-76
2021/07/24 04:18:50;;;;;;;11.93;4.27;;;;;;;;;;4992903;28;20201;-75
2021/07/24 04:21:17;;;;;;;14.33;4.60;;;;;;;;;;4992619;28;20233;-75
2021/07/24 04:23:45;;;;;;;7.97;4.53;;;;;;;;;;4992767;28;20293;-75
2021/07/24 04:26:12;;;;;;;12.30;4.43;;;;;;;;;;4992706;28;20205;-75
2021/07/24 04:28:39;;;;;;;11.17;4.77;;;;;;;;;;4996051;28;20211;-75
2021/07/24 04:31:12;;;;;;;11.83;4.27;;;;;;;;;;5012104;28;20292;-75
2021/07/24 04:33:39;;;;;;;15.43;4.63;;;;;;;;;;5012188;28;20200;-76
2021/07/24 04:36:06;;;;;;;8.53;4.47;;;;;;;;;;5011993;28;20204;-75
2021/07/24 04:38:33;;;;;;;12.77;4.70;;;;;;;;;;5011927;28;20244;-76
2021/07/24 04:41:01;;;;;;;13.07;4.20;;;;;;;;;;5012143;28;20630;-75
2021/07/24 04:43:28;;;;;;;11.33;4.07;;;;;;;;;;5012270;28;20197;-75
2021/07/24 04:45:55;;;;;;;8.40;4.33;;;;;;;;;;5011859;28;20239;-76
2021/07/24 04:48:24;;;;;;;18.53;5.37;;;;;;;;;;5012032;28;20251;-75
2021/07/24 04:50:52;;;;;;;10.43;4.13;;;;;;;;;;5011797;28;20288;-75
2021/07/24 04:53:20;;;;;;;9.63;4.30;;;;;;;;;;5012194;28;20291;-75
2021/07/24 04:55:48;;;;;;;13.73;4.47;;;;;;;;;;5011810;28;20644;-75
2021/07/24 04:58:16;;;;;;;9.83;4.33;;;;;;;;;;5011802;28;20294;-77
2021/07/24 05:00:45;;;;;;;10.67;4.33;;;;;;;;;;5011755;28;20205;-76
2021/07/24 05:03:13;;;;;;;12.90;4.80;;;;;;;;;;5011861;28;20319;-76
2021/07/24 05:05:41;;;;;;;15.70;5.07;;;;;;;;;;5011446;28;20695;-75
2021/07/24 05:08:09;;;;;;;17.17;4.87;;;;;;;;;;5011892;28;20223;-75
2021/07/24 05:10:36;;;;;;;12.97;4.70;;;;;;;;;;5011489;28;20243;-75
2021/07/24 05:13:04;;;;;;;9.47;4.33;;;;;;;;;;5011676;28;20292;-75
2021/07/24 05:15:32;;;;;;;11.43;4.23;;;;;;;;;;5011943;28;20284;-76
2021/07/24 05:18:00;;;;;;;15.77;4.53;;;;;;;;;;5011796;28;20209;-75
2021/07/24 05:20:29;;;;;;;13.40;4.37;;;;;;;;;;5011629;28;20284;-75
2021/07/24 05:22:58;;;;;;;9.50;4.10;;;;;;;;;;5011581;28;20236;-75
2021/07/24 05:25:26;;;;;;;13.27;4.37;;;;;;;;;;5011743;28;20749;-75
2021/07/24 05:27:53;;;;;;;12.23;4.87;;;;;;;;;;5011168;28;20201;-75
2021/07/24 05:30:20;;;;;;;11.53;4.30;;;;;;;;;;5013977;28;20556;-75
2021/07/24 05:32:47;;;;;;;11.87;4.60;;;;;;;;;;5015451;28;20280;-75
2021/07/24 05:35:14;;;;;;;13.27;4.60;;;;;;;;;;5015186;28;20288;-75
2021/07/24 05:37:41;;;;;;;12.93;4.90;;;;;;;;;;5014951;28;20633;-75
2021/07/24 05:40:12;;;;;;;9.37;4.17;;;;;;;;;;5015342;28;20211;-76
2021/07/24 05:42:40;;;;;;;11.97;4.57;;;;;;;;;;5014691;28;20311;-76
2021/07/24 05:45:07;;;;;;;8.63;4.20;;;;;;;;;;5015207;28;20256;-76
2021/07/24 05:47:34;;;;;;;10.17;4.37;;;;;;;;;;5015106;28;20292;-76
2021/07/24 05:50:02;;;;;;;14.00;4.73;;;;;;;;;;5015046;28;20229;-75
2021/07/24 05:52:30;;;;;;;10.37;4.87;;;;;;;;;;5014884;28;20197;-75
2021/07/24 05:54:57;;;;;;;10.77;4.77;;;;;;;;;;5014801;28;20201;-76
2021/07/24 05:57:25;;;;;;;9.57;4.00;;;;;;;;;;5014718;28;20292;-76
2021/07/24 05:59:53;;;;;;;11.17;4.07;;;;;;;;;;5014542;28;20209;-75
2021/07/24 06:02:20;;;;;;;12.03;3.90;;;;;;;;;;5014511;28;20228;-76
2021/07/24 06:04:47;;;;;;;7.53;3.63;;;;;;;;;;5014502;28;20652;-75
2021/07/24 06:07:14;;;;;;;10.07;3.80;;;;;;;;;;5014418;28;20637;-75
2021/07/24 06:09:42;;;;;;;8.57;3.85;;;;;;;;;;5014433;28;20247;-76
2021/07/24 06:12:10;;;;;;;8.88;3.85;;;;;;;;;;5014153;28;20687;-76
2021/07/24 06:14:39;;;;;;;8.60;3.78;;;;;;;;;;5014599;28;20301;-75
2021/07/24 06:17:07;;;;;;;8.13;3.60;;;;;;;;;;5014217;28;20304;-76
2021/07/24 06:19:34;;;;;;;8.82;3.53;;;;;;;;;;5014674;28;20284;-75
2021/07/24 06:22:01;;;;;;;9.27;3.70;;;;;;;;;;5014221;28;20287;-75
2021/07/24 06:24:29;;;;;;;10.38;3.78;;;;;;;;;;5014300;28;20201;-75
2021/07/24 06:26:56;;;;;;;6.90;3.47;;;;;;;;;;5013868;28;20288;-75
2021/07/24 06:29:23;;;;;;;6.38;3.40;;;;;;;;;;5014103;28;20204;-76
2021/07/24 06:31:52;;;;;;;6.75;2.83;;;;;;;;;;5014133;28;20201;-75
2021/07/24 06:34:19;;;;;;;7.93;3.10;;;;;;;;;;5013931;28;20300;-76
2021/07/24 06:36:46;;;;;;;8.20;3.33;;;;;;;;;;5013938;28;20316;-76
2021/07/24 06:39:14;;;;;;;7.78;3.83;;;;;;;;;;5013959;28;20296;-75
2021/07/24 06:41:42;;;;;;;7.00;2.58;;;;;;;;;;5012404;28;20209;-75
2021/07/24 06:44:09;;;;;;;5.93;2.78;;;;;;;;;;5014162;28;20292;-76
2021/07/24 06:46:37;;;;;;;8.65;2.97;;;;;;;;;;5013438;28;20606;-76
2021/07/24 06:49:05;;;;;;;4.20;2.20;;;;;;;;;;5012897;28;20296;-76
2021/07/24 06:51:32;;;;;;;5.85;2.70;;;;;;;;;;5013753;28;20232;-76
2021/07/24 06:53:59;;;;;;;4.95;2.40;;;;;;;;;;5013333;28;20221;-75
2021/07/24 06:56:27;;;;;;;6.10;2.20;;;;;;;;;;5013299;28;20293;-76
2021/07/24 06:58:54;;;;;;;4.13;1.80;;;;;;;;;;5013664;28;20304;-76
2021/07/24 07:01:21;;;;;;;4.35;2.05;;;;;;;;;;5013691;28;20332;-76
2021/07/24 07:03:48;;;;;;;6.15;2.20;;;;;;;;;;5013217;28;20315;-76
2021/07/24 07:06:17;;;;;;;4.85;1.92;;;;;;;;;;5012074;28;20201;-76
2021/07/24 07:08:44;;;;;;;3.92;2.00;;;;;;;;;;5013192;28;20328;-75
2021/07/24 07:11:13;;;;;;;4.97;2.05;;;;;;;;;;5013436;28;20201;-76
2021/07/24 07:13:40;;;;;;;6.10;2.20;;;;;;;;;;5013389;28;20201;-75
2021/07/24 07:16:07;;;;;;;4.95;2.22;;;;;;;;;;5013342;28;20292;-76
2021/07/24 07:18:35;;;;;;;4.18;1.80;;;;;;;;;;5013273;28;20235;-76
2021/07/24 07:21:02;;;;;;;6.05;2.20;;;;;;;;;;5013258;28;20304;-77
2021/07/24 07:23:30;;;;;;;3.95;1.90;;;;;;;;;;5012965;28;20316;-76
2021/07/24 07:25:57;;;;;;;5.30;2.13;;;;;;;;;;5013335;28;20292;-76
2021/07/24 07:28:25;;;;;;;3.33;2.03;;;;;;;;;;5013018;28;20293;-76
2021/07/24 07:30:52;;;;;;;3.75;2.42;;;;;;;;;;5012890;28;20207;-76
2021/07/24 07:33:20;;;;;;;5.35;2.40;;;;;;;;;;5013113;28;20197;-76
2021/07/24 07:35:47;;;;;;;5.57;2.22;;;;;;;;;;5013069;28;20205;-75
2021/07/24 07:38:15;;;;;;;3.95;2.05;;;;;;;;;;5012346;28;20288;-76
2021/07/24 07:40:44;;;;;;;5.22;2.20;;;;;;;;;;5013001;28;20201;-75
2021/07/24 07:43:11;;;;;;;4.72;2.35;;;;;;;;;;5012562;28;20231;-76
2021/07/24 07:45:40;;;;;;;7.55;2.50;;;;;;;;;;5012903;28;20224;-75
2021/07/24 07:48:08;;;;;;;7.18;2.47;;;;;;;;;;5013071;28;20267;-76
2021/07/24 07:50:35;;;;;;;4.30;2.30;;;;;;;;;;5012904;28;20288;-75
2021/07/24 07:53:03;;;;;;;4.93;1.90;;;;;;;;;;5012127;28;20204;-76
2021/07/24 07:55:30;;;;;;;5.13;2.30;;;;;;;;;;5012747;28;20283;-76
2021/07/24 07:57:58;;;;;;;5.30;2.33;;;;;;;;;;5012862;28;20315;-76
2021/07/24 08:00:25;;;;;;;5.07;2.10;;;;;;;;;;5012349;28;20690;-76
2021/07/24 08:02:53;;;;;;;5.55;2.30;;;;;;;;;;5012500;28;20247;-76
2021/07/24 08:05:21;;;;;;;5.88;2.15;;;;;;;;;;5012325;28;20292;-76
2021/07/24 08:07:48;;;;;;;6.22;2.33;;;;;;;;;;5012099;28;20203;-76
2021/07/24 08:10:15;;;;;;;4.15;2.10;;;;;;;;;;5012310;28;20324;-76
2021/07/24 08:12:43;;;;;;;5.47;2.22;;;;;;;;;;5012477;28;20292;-76
2021/07/24 08:15:12;;;;;;;4.68;2.30;;;;;;;;;;5012183;28;20204;-76
2021/07/24 08:17:39;;;;;;;3.60;2.10;;;;;;;;;;5012588;28;20280;-76
2021/07/24 08:20:08;;;;;;;7.65;2.20;;;;;;;;;;5012166;28;20244;-76
2021/07/24 08:22:35;;;;;;;7.65;2.30;;;;;;;;;;5011639;28;20906;-76
2021/07/24 08:25:02;;;;;;;8.27;2.50;;;;;;;;;;5012250;28;20291;-76
2021/07/24 08:27:29;;;;;;;3.80;2.03;;;;;;;;;;5011910;28;20756;-76
2021/07/24 08:29:57;;;;;;;6.72;2.50;;;;;;;;;;5011844;28;20221;-76
2021/07/24 08:32:25;;;;;;;4.72;2.25;;;;;;;;;;5012195;28;20296;-76
2021/07/24 08:34:53;;;;;;;5.00;2.20;;;;;;;;;;5012370;28;20232;-77
2021/07/24 08:37:21;;;;;;;9.10;2.50;;;;;;;;;;5011734;28;20201;-76
2021/07/24 08:39:48;;;;;;;4.90;2.05;;;;;;;;;;5011968;28;20936;-77
2021/07/24 08:42:29;;;;;;;4.05;2.03;;;;;;;;;;5012045;28;20740;-76
2021/07/24 08:44:56;;;;;;;5.70;2.30;;;;;;;;;;5012126;28;20193;-76
2021/07/24 08:47:23;;;;;;;5.35;2.00;;;;;;;;;;5011794;28;20205;-76
2021/07/24 08:49:52;;;;;;;4.15;1.85;;;;;;;;;;5012276;28;20201;-76
2021/07/24 08:52:21;;;;;;;4.65;2.35;;;;;;;;;;5011554;28;20303;-77
2021/07/24 08:54:49;;;;;;;5.10;2.00;;;;;;;;;;5012059;28;20200;-77
2021/07/24 08:57:18;;;;;;;4.75;1.83;;;;;;;;;;5012190;28;20201;-77
2021/07/24 08:59:47;;;;;;;4.80;1.98;;;;;;;;;;5011947;28;20200;-76
2021/07/24 09:02:14;;;;;;;4.03;1.80;;;;;;;;;;5011975;28;20296;-76
2021/07/24 09:04:46;;;;;;;3.90;2.10;;;;;;;;;;5013801;28;20319;-76
2021/07/24 09:07:15;;;;;;;4.60;2.17;;;;;;;;;;5015865;28;20201;-76
2021/07/24 09:09:42;;;;;;;5.53;2.25;;;;;;;;;;5015641;28;20670;-76
2021/07/24 09:12:11;;;;;;;4.60;2.20;;;;;;;;;;5015590;28;20212;-77
2021/07/24 09:14:38;;;;;;;4.90;2.25;;;;;;;;;;5015935;28;20280;-76
2021/07/24 09:17:06;;;;;;;4.50;2.33;;;;;;;;;;5015728;28;20791;-76
2021/07/24 09:19:33;;;;;;;5.75;2.45;;;;;;;;;;5015348;28;20292;-76
2021/07/24 09:22:01;;;;;;;4.40;2.20;;;;;;;;;;5015614;28;20308;-74
2021/07/24 09:24:29;;;;;;;4.38;2.22;;;;;;;;;;5015184;28;20312;-74
2021/07/24 09:26:56;;;;;;;4.82;2.15;;;;;;;;;;5015415;28;20201;-75
2021/07/24 09:29:24;;;;;;;5.30;2.28;;;;;;;;;;5015524;28;20248;-76
2021/07/24 09:31:51;;;;;;;5.85;2.30;;;;;;;;;;5015288;28;20300;-76
2021/07/24 09:34:18;;;;;;;5.28;1.85;;;;;;;;;;5015263;28;20201;-74
2021/07/24 09:36:47;;;;;;;4.38;1.52;;;;;;;;;;5015064;28;20779;-76
2021/07/24 09:39:14;;;;;;;9.35;2.40;;;;;;;;;;5015012;28;20209;-76
2021/07/24 09:41:43;;;;;;;9.10;2.88;;;;;;;;;;5014962;28;20304;-77
2021/07/24 09:44:11;;;;;;;8.32;2.47;;;;;;;;;;5015323;28;20320;-77
2021/07/24 09:46:38;;;;;;;8.90;2.40;;;;;;;;;;5014954;28;20227;-77
2021/07/24 09:49:12;;;;;;;8.63;2.15;;;;;;;;;;5015066;28;20232;-78
2021/07/24 09:51:40;;;;;;;4.30;2.20;;;;;;;;;;5015020;28;20287;-78
2021/07/24 09:54:08;;;;;;;4.57;2.00;;;;;;;;;;5015369;28;20197;-77
2021/07/24 09:56:40;;;;;;;3.70;1.90;;;;;;;;;;5015087;28;20292;-76
2021/07/24 09:59:19;;;;;;;3.17;2.00;;;;;;;;;;5014847;28;20207;-77
2021/07/24 10:01:53;;;;;;;4.53;2.20;;;;;;;;;;5014977;28;20207;-76
2021/07/24 10:04:24;;;;;;;4.43;2.60;;;;;;;;;;5014507;28;20229;-77
2021/07/24 10:06:53;;;;;;;4.00;2.20;;;;;;;;;;5015112;28;20300;-77
2021/07/24 10:09:25;;;;;;;7.93;2.27;;;;;;;;;;5014789;28;20592;-77
2021/07/24 10:11:54;;;;;;;6.27;2.70;;;;;;;;;;5014844;28;20205;-77
2021/07/24 10:14:23;;;;;;;4.03;2.53;;;;;;;;;;5014657;28;20237;-77
2021/07/24 10:16:51;;;;;;;4.53;2.50;;;;;;;;;;5014729;28;20213;-77
2021/07/24 10:19:18;;;;;;;6.07;2.57;;;;;;;;;;5014708;28;20204;-77
2021/07/24 10:21:46;;;;;;;3.30;2.70;;;;;;;;;;5014487;28;20209;-77
2021/07/24 10:24:13;;;;;;;4.77;3.07;;;;;;;;;;5014368;28;20227;-77
2021/07/24 10:26:43;;;;;;;4.23;3.30;;;;;;;;;;5014749;28;20223;-76
2021/07/24 10:29:11;;;;;;;6.83;3.03;;;;;;;;;;5014426;28;20299;-77
2021/07/24 10:31:43;;;;;;;6.03;3.07;;;;;;;;;;5014507;28;20232;-77
2021/07/24 10:34:11;;;;;;;6.70;3.33;;;;;;;;;;5014828;28;20199;-78
2021/07/24 10:36:39;;;;;;;4.70;3.00;;;;;;;;;;5014586;28;20295;-77
2021/07/24 10:39:07;;;;;;;5.00;3.00;;;;;;;;;;5014192;28;20201;-78
2021/07/24 10:41:43;;;;;;;5.20;3.20;;;;;;;;;;5014493;28;20205;-77
2021/07/24 10:44:11;;;;;;;6.40;3.33;;;;;;;;;;5014022;28;20320;-77
2021/07/24 10:47:21;;;;;;;6.30;3.47;;;;;;;;;;5014096;28;20578;-77
2021/07/24 10:50:05;;;;;;;5.78;3.47;;;;;;;;;;5013470;28;20772;-77
2021/07/24 10:53:02;;;;;;;5.13;3.55;;;;;;;;;;5013886;28;20205;-78
2021/07/24 10:55:39;;;;;;;5.30;3.20;;;;;;;;;;4953013;29;20290;-77
2021/07/24 10:58:06;;;;;;;7.97;3.35;;;;;;;;;;4953134;29;20209;-77
2021/07/24 11:00:40;;;;;;;5.13;3.40;;;;;;;;;;4953360;29;20207;-78
2021/07/24 11:03:22;;;;;;;7.97;4.05;;;;;;;;;;4952698;29;20261;-78
2021/07/24 11:05:50;;;;;;;6.93;3.63;;;;;;;;;;4952606;29;20258;-77
2021/07/24 11:08:18;;;;;;;7.63;3.33;;;;;;;;;;4952923;28;20322;-78
2021/07/24 11:11:09;;;;;;;7.10;4.10;;;;;;;;;;4952959;29;20313;-77
2021/07/24 11:13:48;;;;;;;7.75;4.03;;;;;;;;;;4953064;29;20285;-78
2021/07/24 11:16:16;;;;;;;6.38;3.63;;;;;;;;;;4952834;29;20198;-78
2021/07/24 11:18:43;;;;;;;6.05;3.33;;;;;;;;;;4952945;29;20305;-78
2021/07/24 11:21:12;;;;;;;8.45;3.72;;;;;;;;;;4952837;29;20290;-78
2021/07/24 11:24:11;;;;;;;7.10;3.60;;;;;;;;;;4952541;29;20262;-77
2021/07/24 11:26:39;;;;;;;7.97;3.88;;;;;;;;;;4952325;28;20374;-77
2021/07/24 11:29:06;;;;;;;8.77;3.65;;;;;;;;;;4969388;28;20296;-78
2021/07/24 11:31:34;;;;;;;4.97;3.42;;;;;;;;;;5012962;28;20205;-78
2021/07/24 11:34:01;;;;;;;7.10;3.63;;;;;;;;;;5013269;28;20651;-78
2021/07/24 11:36:30;;;;;;;7.10;3.65;;;;;;;;;;5013300;28;20228;-77
2021/07/24 11:38:58;;;;;;;8.05;3.90;;;;;;;;;;5012928;28;20247;-77
2021/07/24 11:41:32;;;;;;;7.43;4.03;;;;;;;;;;5013397;28;20259;-78
2021/07/24 11:44:00;;;;;;;7.28;3.70;;;;;;;;;;5012739;28;20229;-78
2021/07/24 11:46:27;;;;;;;6.18;3.80;;;;;;;;;;5012310;28;20205;-78
2021/07/24 11:49:02;;;;;;;8.57;4.05;;;;;;;;;;5012937;28;20293;-77
2021/07/24 11:51:31;;;;;;;7.50;3.80;;;;;;;;;;5013006;28;20692;-77
2021/07/24 11:53:58;;;;;;;6.97;3.90;;;;;;;;;;5013033;28;20567;-78
2021/07/24 11:56:26;;;;;;;9.93;4.13;;;;;;;;;;5013195;28;20292;-77
2021/07/24 11:58:54;;;;;;;7.43;3.70;;;;;;;;;;5012363;28;20292;-77
2021/07/24 12:01:22;;;;;;;5.43;3.60;;;;;;;;;;5012925;28;20216;-77
2021/07/24 12:04:03;;;;;;;6.70;3.40;;;;;;;;;;5012653;28;20265;-76
2021/07/24 12:06:32;;;;;;;5.18;3.70;;;;;;;;;;5012590;28;20215;-76
2021/07/24 12:08:59;;;;;;;7.53;3.92;;;;;;;;;;5012408;28;20308;-76
2021/07/24 12:11:26;;;;;;;8.10;3.40;;;;;;;;;;5012850;28;20207;-77
2021/07/24 12:14:05;;;;;;;6.40;3.63;;;;;;;;;;5012475;28;20288;-77
2021/07/24 12:16:39;;;;;;;6.07;3.60;;;;;;;;;;5012701;28;20204;-76
2021/07/24 12:19:13;;;;;;;7.07;3.47;;;;;;;;;;5012554;28;20611;-76
2021/07/24 12:21:42;;;;;;;6.07;3.23;;;;;;;;;;5012358;28;20578;-76
2021/07/24 12:24:10;;;;;;;10.23;3.70;;;;;;;;;;5012487;28;20225;-76
2021/07/24 12:26:39;;;;;;;7.20;3.83;;;;;;;;;;5011984;28;20245;-76
2021/07/24 12:29:21;;;;;;;7.13;3.60;;;;;;;;;;5011819;28;20291;-77
2021/07/24 12:31:49;;;;;;;7.07;4.03;;;;;;;;;;5012449;28;20201;-76
2021/07/24 12:34:16;;;;;;;8.03;4.20;;;;;;;;;;5012116;28;20614;-76
2021/07/24 12:36:52;;;;;;;7.63;4.07;;;;;;;;;;5012232;28;20291;-76
2021/07/24 12:39:20;;;;;;;7.17;3.90;;;;;;;;;;5013520;28;20200;-76
2021/07/24 12:41:58;;;;;;;7.80;4.30;;;;;;;;;;5016320;28;20287;-76
2021/07/24 12:44:25;;;;;;;8.70;4.17;;;;;;;;;;5015878;28;20227;-76
2021/07/24 12:47:07;;;;;;;5.67;4.07;;;;;;;;;;5016452;28;20304;-76
2021/07/24 12:49:36;;;;;;;10.07;4.50;;;;;;;;;;5016041;28;20616;-76
2021/07/24 12:52:19;;;;;;;6.97;4.70;;;;;;;;;;5016115;28;20558;-76
2021/07/24 12:55:00;;;;;;;8.63;4.70;;;;;;;;;;5015877;28;20717;-76
2021/07/24 12:57:27;;;;;;;7.00;4.40;;;;;;;;;;5015963;28;20228;-76
2021/07/24 12:59:55;;;;;;;7.93;4.13;;;;;;;;;;5016068;28;20201;-76
2021/07/24 13:02:23;;;;;;;7.70;4.23;;;;;;;;;;5015697;28;20744;-77
2021/07/24 13:04:51;;;;;;;6.23;4.93;;;;;;;;;;5015770;28;20572;-76
2021/07/24 13:07:21;;;;;;;6.13;4.33;;;;;;;;;;5015663;28;20205;-77
2021/07/24 13:09:48;;;;;;;6.80;4.43;;;;;;;;;;5015891;28;20236;-76
2021/07/24 13:12:17;;;;;;;7.28;4.68;;;;;;;;;;5015668;28;20235;-76
2021/07/24 13:14:44;;;;;;;7.57;5.30;;;;;;;;;;5015871;28;20288;-77
2021/07/24 13:17:11;;;;;;;9.23;4.83;;;;;;;;;;5015861;28;20869;-77
2021/07/24 13:19:38;;;;;;;7.50;4.00;;;;;;;;;;5015868;28;20620;-77
2021/07/24 13:22:05;;;;;;;7.97;3.92;;;;;;;;;;5016138;28;20225;-77
2021/07/24 13:24:34;;;;;;;7.28;3.65;;;;;;;;;;5015772;28;20623;-77
2021/07/24 13:29:47;;;;;;;5.80;3.30;;;;;;;;;;5015103;28;20208;-77
2021/07/24 13:32:14;;;;;;;5.60;3.70;;;;;;;;;;5015173;28;20288;-77
2021/07/24 13:34:41;;;;;;;6.63;3.53;;;;;;;;;;5015220;28;20716;-76
2021/07/24 13:37:09;;;;;;;8.80;3.83;;;;;;;;;;5015002;28;20645;-76
2021/07/24 13:39:36;;;;;;;4.57;3.30;;;;;;;;;;5015135;28;20628;-76
2021/07/24 13:42:03;;;;;;;7.10;3.58;;;;;;;;;;5014706;28;20768;-76
2021/07/24 13:44:31;;;;;;;8.20;3.60;;;;;;;;;;5014968;28;20261;-76
2021/07/24 13:46:59;;;;;;;5.80;3.25;;;;;;;;;;5015240;28;20289;-77
2021/07/24 13:49:26;;;;;;;4.23;3.00;;;;;;;;;;5014812;28;20291;-77
2021/07/24 13:51:54;;;;;;;6.40;3.50;;;;;;;;;;5014495;28;20697;-76
2021/07/24 13:54:21;;;;;;;4.93;3.10;;;;;;;;;;5014924;28;20293;-77
2021/07/24 13:56:48;;;;;;;5.43;2.80;;;;;;;;;;5014818;28;20252;-76
2021/07/24 13:59:15;;;;;;;5.65;3.13;;;;;;;;;;5014986;28;20292;-77
2021/07/24 14:01:42;;;;;;;6.40;3.28;;;;;;;;;;5015124;28;20292;-77
2021/07/24 14:04:12;;;;;;;6.25;2.95;;;;;;;;;;5014897;28;20288;-77
2021/07/24 14:06:39;;;;;;;3.13;2.50;;;;;;;;;;5014635;28;20297;-77
2021/07/24 14:09:06;;;;;;;3.10;2.45;;;;;;;;;;5014314;28;20327;-77
2021/07/24 14:11:33;;;;;;;4.53;2.58;;;;;;;;;;5014360;28;20287;-77
2021/07/24 14:14:01;;;;;;;5.65;2.60;;;;;;;;;;5015005;28;20233;-77
2021/07/24 14:16:29;;;;;;;5.10;2.45;;;;;;;;;;5014384;28;20543;-77
2021/07/24 14:18:56;;;;;;;4.88;2.33;;;;;;;;;;5014270;28;20236;-77
2021/07/24 14:21:25;;;;;;;5.30;2.75;;;;;;;;;;5014330;28;20288;-77
2021/07/24 14:23:56;;;;;;;4.53;2.80;;;;;;;;;;5013590;28;20300;-77
2021/07/24 14:26:23;;;;;;;5.70;3.00;;;;;;;;;;5014122;28;20225;-77
2021/07/24 14:28:50;;;;;;;5.93;2.80;;;;;;;;;;5013778;28;20636;-77
2021/07/24 14:31:18;;;;;;;5.28;2.80;;;;;;;;;;5014202;28;20292;-77
2021/07/24 14:33:45;;;;;;;4.25;2.60;;;;;;;;;;5014170;28;20211;-77
2021/07/24 14:36:15;;;;;;;6.20;3.13;;;;;;;;;;5014129;28;20288;-77
2021/07/24 14:38:44;;;;;;;4.75;3.10;;;;;;;;;;5014176;28;20212;-77
2021/07/24 14:41:11;;;;;;;5.13;3.20;;;;;;;;;;5014244;28;20220;-77
2021/07/24 14:43:39;;;;;;;3.95;3.25;;;;;;;;;;5014209;28;20295;-77
2021/07/24 14:46:07;;;;;;;5.03;3.08;;;;;;;;;;5012211;28;20315;-77
2021/07/24 14:48:34;;;;;;;5.95;3.47;;;;;;;;;;5013960;28;20201;-78
2021/07/24 14:51:04;;;;;;;4.93;2.80;;;;;;;;;;5013959;28;20292;-77
2021/07/24 14:53:31;;;;;;;7.93;3.25;;;;;;;;;;5013810;28;20577;-77